createdAt,value
2019-05-10T00:00:13.924Z,14.35
2019-05-10T00:03:00.347Z,14.32
2019-05-10T00:05:47.133Z,14.31
2019-05-10T00:08:33.665Z,14.25
2019-05-10T00:11:06.808Z,14.23
2019-05-10T00:13:56.223Z,14.18
2019-05-10T00:16:26.153Z,14.03
2019-05-10T00:18:54.753Z,14.02
2019-05-10T00:21:23.183Z,13.99
2019-05-10T00:23:51.707Z,13.90
2019-05-10T00:26:20.244Z,13.94
2019-05-10T00:28:48.655Z,14.06
2019-05-10T00:31:17.134Z,14.04
2019-05-10T00:33:45.517Z,14.04
2019-05-10T00:36:13.918Z,14.10
2019-05-10T00:38:42.809Z,14.03
2019-05-10T00:41:11.236Z,14.06
2019-05-10T00:43:39.614Z,14.03
2019-05-10T00:46:07.993Z,14.04
2019-05-10T00:48:36.445Z,14.09
2019-05-10T00:51:04.887Z,14.07
2019-05-10T00:53:33.523Z,14.01
2019-05-10T00:56:01.939Z,14.00
2019-05-10T00:58:30.346Z,13.91
2019-05-10T01:00:58.776Z,13.89
2019-05-10T01:03:27.272Z,13.84
2019-05-10T01:05:55.698Z,13.91
2019-05-10T01:08:24.586Z,13.91
2019-05-10T01:10:52.974Z,13.88
2019-05-10T01:13:21.364Z,13.80
2019-05-10T01:15:50.027Z,13.84
2019-05-10T01:18:18.823Z,13.92
2019-05-10T01:20:47.367Z,13.93
2019-05-10T01:23:15.847Z,13.89
2019-05-10T01:25:44.417Z,13.85
2019-05-10T01:28:12.844Z,13.81
2019-05-10T01:30:41.698Z,13.74
2019-05-10T01:33:10.116Z,13.81
2019-05-10T01:35:38.593Z,13.76
2019-05-10T01:38:06.974Z,13.72
2019-05-10T01:40:35.451Z,13.76
2019-05-10T01:43:04.355Z,13.81
2019-05-10T01:45:32.746Z,13.87
2019-05-10T01:48:01.099Z,13.94
2019-05-10T01:50:29.786Z,13.95
2019-05-10T01:52:58.219Z,13.99
2019-05-10T01:55:26.625Z,13.99
2019-05-10T01:57:54.997Z,14.01
2019-05-10T02:00:23.728Z,13.99
2019-05-10T02:02:52.423Z,13.90
2019-05-10T02:05:20.846Z,13.88
2019-05-10T02:07:49.294Z,13.89
2019-05-10T02:10:17.812Z,13.79
2019-05-10T02:12:46.250Z,13.76
2019-05-10T02:15:14.786Z,13.63
2019-05-10T02:17:43.255Z,13.68
2019-05-10T02:20:12.980Z,13.68
2019-05-10T02:22:41.813Z,13.53
2019-05-10T02:25:12.136Z,13.53
2019-05-10T02:27:40.584Z,13.65
2019-05-10T02:30:09.181Z,13.57
2019-05-10T02:32:37.566Z,13.64
2019-05-10T02:35:09.290Z,13.67
2019-05-10T02:37:37.936Z,13.47
2019-05-10T02:40:07.142Z,13.37
2019-05-10T02:42:35.919Z,13.33
2019-05-10T02:45:07.004Z,13.25
2019-05-10T02:47:35.751Z,13.29
2019-05-10T02:50:06.198Z,13.27
2019-05-10T02:52:34.973Z,13.23
2019-05-10T02:55:04.786Z,13.32
2019-05-10T02:57:33.585Z,13.38
2019-05-10T03:00:03.712Z,13.42
2019-05-10T03:02:32.538Z,13.45
2019-05-10T03:05:01.276Z,13.46
2019-05-10T03:07:30.508Z,13.51
2019-05-10T03:10:00.639Z,13.54
2019-05-10T03:12:29.115Z,13.57
2019-05-10T03:14:58.442Z,13.55
2019-05-10T03:17:28.625Z,13.58
2019-05-10T03:19:57.491Z,13.54
2019-05-10T03:22:27.771Z,13.50
2019-05-10T03:24:56.141Z,13.49
2019-05-10T03:27:24.605Z,13.44
2019-05-10T03:29:53.474Z,13.48
2019-05-10T03:32:21.941Z,13.53
2019-05-10T03:34:50.372Z,13.54
2019-05-10T03:37:18.829Z,13.49
2019-05-10T03:39:47.365Z,13.29
2019-05-10T03:42:16.185Z,13.23
2019-05-10T03:44:44.693Z,13.14
2019-05-10T03:47:13.202Z,13.17
2019-05-10T03:49:41.568Z,13.24
2019-05-10T03:52:09.942Z,13.21
2019-05-10T03:54:38.318Z,13.07
2019-05-10T03:57:13.813Z,13.07
2019-05-10T03:59:36.856Z,13.13
2019-05-10T04:02:05.363Z,13.20
2019-05-10T04:04:33.846Z,13.29
2019-05-10T04:07:02.412Z,13.34
2019-05-10T04:09:31.034Z,13.26
2019-05-10T04:11:59.492Z,13.18
2019-05-10T04:14:28.195Z,13.11
2019-05-10T04:16:56.697Z,13.08
2019-05-10T04:19:25.470Z,13.16
2019-05-10T04:21:53.875Z,13.17
2019-05-10T04:24:22.336Z,13.06
2019-05-10T04:26:50.722Z,13.06
2019-05-10T04:29:19.139Z,13.02
2019-05-10T04:31:47.684Z,12.92
2019-05-10T04:34:16.121Z,12.94
2019-05-10T04:36:44.638Z,12.92
2019-05-10T04:39:13.022Z,13.08
2019-05-10T04:41:41.527Z,13.06
2019-05-10T04:44:09.999Z,13.10
2019-05-10T04:46:38.479Z,13.09
2019-05-10T04:49:07.019Z,13.16
2019-05-10T04:51:35.706Z,13.18
2019-05-10T04:54:04.750Z,13.00
2019-05-10T04:56:33.118Z,13.09
2019-05-10T04:59:01.647Z,13.13
2019-05-10T05:01:30.557Z,13.06
2019-05-10T05:03:59.015Z,13.09
2019-05-10T05:06:31.046Z,13.21
2019-05-10T05:09:00.725Z,13.30
2019-05-10T05:11:29.099Z,13.24
2019-05-10T05:13:57.821Z,13.27
2019-05-10T05:16:26.256Z,13.15
2019-05-10T05:18:55.092Z,13.12
2019-05-10T05:21:23.896Z,13.18
2019-05-10T05:23:52.362Z,13.23
2019-05-10T05:26:20.729Z,13.26
2019-05-10T05:28:49.148Z,13.29
2019-05-10T05:31:17.557Z,13.21
2019-05-10T05:33:45.908Z,13.23
2019-05-10T05:36:14.509Z,13.45
2019-05-10T05:38:46.939Z,13.44
2019-05-10T05:41:13.366Z,13.59
2019-05-10T05:43:46.290Z,13.68
2019-05-10T05:46:14.488Z,13.79
2019-05-10T05:48:42.712Z,13.75
2019-05-10T05:51:11.174Z,14.00
2019-05-10T05:53:42.496Z,14.14
2019-05-10T05:56:13.372Z,14.35
2019-05-10T05:58:44.804Z,14.40
2019-05-10T06:01:24.824Z,14.15
2019-05-10T06:03:41.901Z,14.17
2019-05-10T06:06:21.732Z,13.93
2019-05-10T06:08:40.675Z,14.00
2019-05-10T06:11:09.366Z,13.93
2019-05-10T06:13:37.742Z,13.90
2019-05-10T06:16:12.973Z,13.99
2019-05-10T06:18:41.601Z,13.92
2019-05-10T06:21:07.041Z,13.89
2019-05-10T06:23:36.898Z,13.83
2019-05-10T06:26:06.327Z,13.84
2019-05-10T06:28:57.544Z,13.85
2019-05-10T06:31:05.964Z,14.09
2019-05-10T06:33:34.450Z,14.23
2019-05-10T06:36:02.968Z,14.34
2019-05-10T06:38:31.558Z,14.38
2019-05-10T06:41:00.156Z,14.47
2019-05-10T06:43:28.990Z,14.61
2019-05-10T06:45:57.399Z,14.79
2019-05-10T06:48:29.587Z,14.76
2019-05-10T06:50:56.311Z,14.38
2019-05-10T06:53:24.677Z,14.59
2019-05-10T06:55:53.173Z,14.51
2019-05-10T06:58:21.934Z,14.36
2019-05-10T07:00:50.621Z,14.48
2019-05-10T07:03:19.054Z,14.70
2019-05-10T07:05:47.889Z,14.80
2019-05-10T07:08:20.343Z,14.82
2019-05-10T07:10:46.546Z,15.05
2019-05-10T07:13:14.973Z,14.95
2019-05-10T07:15:44.820Z,14.94
2019-05-10T07:18:16.873Z,14.46
2019-05-10T07:20:43.658Z,14.44
2019-05-10T07:23:12.049Z,14.52
2019-05-10T07:25:43.831Z,14.25
2019-05-10T07:28:15.855Z,14.17
2019-05-10T07:30:41.908Z,14.06
2019-05-10T07:33:10.458Z,14.26
2019-05-10T07:35:39.039Z,14.00
2019-05-10T07:38:07.559Z,14.02
2019-05-10T07:40:36.033Z,14.23
2019-05-10T07:43:04.552Z,14.55
2019-05-10T07:45:32.974Z,14.78
2019-05-10T07:48:02.296Z,15.03
2019-05-10T07:50:31.612Z,15.48
2019-05-10T07:52:59.994Z,15.90
2019-05-10T07:55:29.995Z,15.83
2019-05-10T07:58:04.829Z,15.58
2019-05-10T08:00:29.654Z,15.31
2019-05-10T08:03:11.802Z,15.44
2019-05-10T08:05:29.463Z,15.64
2019-05-10T08:07:58.809Z,15.73
2019-05-10T08:10:28.932Z,16.30
2019-05-10T08:12:59.499Z,16.01
2019-05-10T08:15:32.568Z,16.28
2019-05-10T08:17:58.556Z,16.85
2019-05-10T08:20:42.215Z,17.20
2019-05-10T08:22:57.572Z,17.84
2019-05-10T08:25:29.181Z,17.58
2019-05-10T08:27:56.071Z,18.01
2019-05-10T08:30:42.594Z,18.59
2019-05-10T08:33:12.031Z,19.34
2019-05-10T08:35:45.528Z,19.01
2019-05-10T08:38:12.685Z,18.55
2019-05-10T08:40:42.811Z,18.14
2019-05-10T08:43:16.134Z,19.11
2019-05-10T08:45:45.171Z,18.92
2019-05-10T08:48:12.730Z,18.90
2019-05-10T08:50:53.373Z,19.34
2019-05-10T08:53:16.260Z,19.41
2019-05-10T08:55:43.331Z,20.03
2019-05-10T08:58:12.516Z,20.57
2019-05-10T09:00:53.724Z,19.34
2019-05-10T09:03:18.122Z,18.44
2019-05-10T09:05:43.283Z,17.69
2019-05-10T09:08:19.517Z,16.93
2019-05-10T09:10:42.234Z,17.22
2019-05-10T09:13:12.876Z,17.52
2019-05-10T09:15:51.344Z,18.40
2019-05-10T09:18:12.811Z,17.97
2019-05-10T09:20:42.311Z,18.13
2019-05-10T09:23:17.933Z,18.05
2019-05-10T09:25:42.669Z,17.74
2019-05-10T09:28:16.559Z,17.70
2019-05-10T09:30:56.460Z,16.93
2019-05-10T09:33:14.291Z,16.69
2019-05-10T09:35:46.851Z,16.56
2019-05-10T09:38:12.978Z,16.68
2019-05-10T09:40:50.652Z,16.45
2019-05-10T09:43:12.467Z,16.45
2019-05-10T09:45:42.499Z,16.24
2019-05-10T09:48:12.069Z,16.29
2019-05-10T09:50:46.494Z,16.13
2019-05-10T09:53:13.537Z,15.71
2019-05-10T09:55:45.608Z,15.62
2019-05-10T09:58:12.114Z,15.64
2019-05-10T10:00:40.565Z,15.66
2019-05-10T10:03:12.626Z,16.00
2019-05-10T10:05:40.351Z,16.15
2019-05-10T10:08:10.924Z,16.27
2019-05-10T10:10:40.402Z,15.99
2019-05-10T10:13:13.550Z,15.74
2019-05-10T10:15:39.355Z,15.74
2019-05-10T10:18:12.712Z,16.06
2019-05-10T10:20:43.472Z,16.18
2019-05-10T10:23:09.312Z,16.57
2019-05-10T10:25:40.459Z,17.18
2019-05-10T10:28:16.709Z,17.44
2019-05-10T10:30:38.340Z,17.84
2019-05-10T10:33:11.315Z,17.49
2019-05-10T10:35:38.075Z,17.83
2019-05-10T10:38:08.098Z,17.70
2019-05-10T10:40:44.182Z,17.01
2019-05-10T10:43:07.556Z,17.23
2019-05-10T10:45:37.765Z,17.32
2019-05-10T10:48:10.725Z,17.36
2019-05-10T10:50:36.741Z,17.44
2019-05-10T10:53:07.781Z,17.36
2019-05-10T10:55:39.423Z,17.66
2019-05-10T10:58:07.383Z,17.86
2019-05-10T11:00:38.867Z,17.63
2019-05-10T11:03:07.553Z,18.03
2019-05-10T11:05:36.015Z,18.14
2019-05-10T11:08:04.508Z,18.43
2019-05-10T11:10:33.131Z,17.60
2019-05-10T11:13:10.038Z,17.48
2019-05-10T11:15:36.009Z,17.15
2019-05-10T11:18:02.017Z,16.51
2019-05-10T11:20:31.719Z,16.76
2019-05-10T11:23:00.738Z,16.97
2019-05-10T11:25:29.190Z,17.25
2019-05-10T11:27:59.251Z,17.43
2019-05-10T11:30:27.825Z,17.44
2019-05-10T11:32:56.351Z,16.96
2019-05-10T11:35:30.480Z,17.07
2019-05-10T11:37:55.269Z,17.17
2019-05-10T11:40:30.801Z,16.99
2019-05-10T11:42:54.220Z,17.11
2019-05-10T11:45:26.243Z,17.79
2019-05-10T11:47:54.440Z,18.71
2019-05-10T11:50:31.286Z,18.99
2019-05-10T11:52:53.533Z,19.42
2019-05-10T11:55:21.998Z,18.66
2019-05-10T12:03:11.471Z,20.14
2019-05-10T12:05:26.300Z,19.34
2019-05-10T12:07:54.217Z,19.57
2019-05-10T12:13:06.049Z,23.67
2019-05-10T12:15:25.536Z,22.54
2019-05-10T12:17:58.519Z,19.51
2019-05-10T12:20:26.874Z,17.69
2019-05-10T12:22:52.509Z,16.87
2019-05-10T12:25:37.719Z,16.18
2019-05-10T12:26:06.273Z,21.54
2019-05-10T12:26:18.046Z,20.05
2019-05-10T12:26:19.458Z,18.83
2019-05-10T12:27:52.418Z,16.05
2019-05-10T12:30:21.667Z,16.20
2019-05-10T12:33:05.896Z,16.16
2019-05-10T12:35:21.257Z,16.17
2019-05-10T12:37:54.042Z,15.22
2019-05-10T12:40:24.232Z,14.72
2019-05-10T12:42:51.647Z,14.43
2019-05-10T12:45:23.419Z,14.25
2019-05-10T12:47:52.007Z,14.04
2019-05-10T12:50:21.087Z,14.11
2019-05-10T12:53:02.654Z,14.27
2019-05-10T12:55:21.141Z,14.57
2019-05-10T12:57:49.894Z,14.54
2019-05-10T13:00:18.913Z,14.50
2019-05-10T13:02:51.304Z,14.55
2019-05-10T13:05:17.560Z,14.68
2019-05-10T13:07:45.928Z,14.54
2019-05-10T13:10:14.550Z,14.58
2019-05-10T13:12:47.120Z,14.49
2019-05-10T13:15:15.459Z,14.41
2019-05-10T13:17:49.837Z,14.28
2019-05-10T13:20:14.307Z,14.58
2019-05-10T13:22:42.765Z,14.44
2019-05-10T13:25:11.489Z,14.49
2019-05-10T13:27:40.038Z,14.51
2019-05-10T13:30:08.980Z,14.50
2019-05-10T13:32:37.531Z,14.65
2019-05-10T13:35:06.572Z,14.69
2019-05-10T13:37:35.006Z,14.79
2019-05-10T13:40:07.747Z,14.89
2019-05-10T13:42:36.652Z,15.09
2019-05-10T13:45:05.964Z,15.07
2019-05-10T13:47:34.543Z,15.26
2019-05-10T13:50:03.389Z,15.12
2019-05-10T13:52:37.761Z,15.20
2019-05-10T13:55:02.020Z,15.45
2019-05-10T13:57:30.485Z,15.72
2019-05-10T14:00:02.035Z,16.26
2019-05-10T14:02:33.269Z,16.73
2019-05-10T14:04:59.141Z,17.22
2019-05-10T14:07:28.057Z,17.66
2019-05-10T14:09:56.841Z,17.24
2019-05-10T14:12:25.754Z,17.24
2019-05-10T14:14:55.582Z,17.15
2019-05-10T14:17:24.477Z,17.32
2019-05-10T14:19:52.906Z,17.35
2019-05-10T14:22:21.404Z,17.23
2019-05-10T14:24:53.484Z,17.40
2019-05-10T14:27:20.035Z,18.65
2019-05-10T14:29:48.405Z,18.34
2019-05-10T14:32:16.890Z,17.99
2019-05-10T14:34:46.354Z,17.80
2019-05-10T14:37:19.876Z,17.79
2019-05-10T14:39:45.391Z,17.76
2019-05-10T14:42:13.777Z,17.20
2019-05-10T14:44:42.193Z,16.93
2019-05-10T14:47:11.256Z,16.71
2019-05-10T14:49:42.094Z,17.08
2019-05-10T14:52:09.912Z,17.66
2019-05-10T14:54:43.677Z,17.28
2019-05-10T14:57:08.551Z,16.87
2019-05-10T14:59:36.941Z,16.49
2019-05-10T15:02:05.469Z,16.43
2019-05-10T15:04:49.434Z,16.50
2019-05-10T15:07:08.683Z,16.51
2019-05-10T15:09:34.234Z,16.56
2019-05-10T15:12:02.834Z,16.48
2019-05-10T15:14:31.617Z,16.85
2019-05-10T15:17:00.047Z,17.21
2019-05-10T15:19:31.174Z,17.41
2019-05-10T15:21:58.588Z,17.42
2019-05-10T15:24:27.068Z,17.22
2019-05-10T15:26:55.978Z,16.79
2019-05-10T15:29:24.718Z,16.75
2019-05-10T15:31:53.419Z,16.55
2019-05-10T15:34:21.794Z,16.24
2019-05-10T15:36:50.178Z,16.38
2019-05-10T15:39:23.109Z,16.52
2019-05-10T15:41:53.490Z,16.71
2019-05-10T15:44:19.173Z,16.82
2019-05-10T15:46:47.941Z,16.93
2019-05-10T15:49:22.697Z,17.22
2019-05-10T15:51:49.117Z,17.41
2019-05-10T15:54:16.674Z,17.50
2019-05-10T15:56:45.286Z,17.31
2019-05-10T15:59:19.138Z,17.43
2019-05-10T16:01:45.738Z,17.52
2019-05-10T16:04:13.870Z,17.30
2019-05-10T16:06:42.671Z,17.12
2019-05-10T16:09:17.394Z,16.94
2019-05-10T16:11:41.362Z,16.81
2019-05-10T16:14:09.911Z,16.78
2019-05-10T16:16:39.774Z,16.95
2019-05-10T16:19:12.885Z,17.03
2019-05-10T16:21:38.870Z,16.66
2019-05-10T16:24:07.757Z,16.65
2019-05-10T16:26:36.254Z,16.73
2019-05-10T16:29:04.703Z,16.70
2019-05-10T16:31:33.597Z,16.38
2019-05-10T16:34:01.995Z,16.58
2019-05-10T16:36:30.428Z,16.26
2019-05-10T16:39:01.785Z,16.33
2019-05-10T16:41:29.255Z,16.43
2019-05-10T16:44:00.097Z,16.47
2019-05-10T16:46:27.956Z,16.45
2019-05-10T16:48:56.410Z,16.40
2019-05-10T16:51:24.856Z,16.37
2019-05-10T16:53:53.395Z,16.36
2019-05-10T16:56:21.771Z,16.29
2019-05-10T16:58:53.110Z,16.22
2019-05-10T17:01:25.184Z,16.17
2019-05-10T17:03:59.219Z,16.11
2019-05-10T17:06:21.087Z,16.02
2019-05-10T17:08:49.495Z,15.92
2019-05-10T17:11:18.006Z,15.89
2019-05-10T17:13:46.537Z,15.82
2019-05-10T17:16:16.919Z,15.83
2019-05-10T17:18:49.776Z,15.82
2019-05-10T17:21:15.433Z,15.82
2019-05-10T17:23:46.851Z,15.80
2019-05-10T17:26:13.998Z,15.80
2019-05-10T17:28:42.419Z,15.80
2019-05-10T17:31:11.122Z,15.85
2019-05-10T17:33:42.810Z,15.82
2019-05-10T17:36:09.739Z,15.80
2019-05-10T17:38:38.183Z,15.78
2019-05-10T17:41:06.535Z,15.72
2019-05-10T17:43:35.044Z,15.66
2019-05-10T17:46:03.531Z,15.72
2019-05-10T17:48:31.889Z,15.58
2019-05-10T17:51:00.499Z,15.55
2019-05-10T17:53:28.939Z,15.46
2019-05-10T17:56:02.310Z,15.41
2019-05-10T17:58:33.014Z,15.42
2019-05-10T18:00:57.744Z,15.32
2019-05-10T18:03:26.181Z,15.29
2019-05-10T18:05:54.686Z,15.22
2019-05-10T18:08:23.077Z,15.20
2019-05-10T18:10:57.249Z,15.12
2019-05-10T18:13:21.979Z,15.10
2019-05-10T18:15:50.427Z,15.02
2019-05-10T18:18:18.826Z,15.04
2019-05-10T18:20:47.268Z,15.01
2019-05-10T18:23:21.197Z,15.00
2019-05-10T18:25:45.894Z,14.97
2019-05-10T18:28:17.156Z,14.98
2019-05-10T18:30:44.612Z,14.96
2019-05-10T18:33:14.118Z,14.93
2019-05-10T18:35:47.592Z,14.86
2019-05-10T18:38:12.847Z,14.87
2019-05-10T18:40:41.372Z,14.84
2019-05-10T18:43:10.215Z,14.79
2019-05-10T18:45:38.767Z,14.76
2019-05-10T18:48:07.378Z,14.75
2019-05-10T18:50:39.604Z,14.72
2019-05-10T18:53:06.199Z,14.68
2019-05-10T18:55:34.720Z,14.65
2019-05-10T18:58:03.254Z,14.59
2019-05-10T19:00:31.787Z,14.55
2019-05-10T19:03:00.236Z,14.57
2019-05-10T19:05:31.651Z,14.53
2019-05-10T19:08:04.795Z,14.55
2019-05-10T19:10:29.241Z,14.50
2019-05-10T19:13:01.642Z,14.47
2019-05-10T19:15:28.113Z,14.45
2019-05-10T19:17:56.515Z,14.38
2019-05-10T19:20:24.868Z,14.37
2019-05-10T19:22:53.320Z,14.33
2019-05-10T19:25:22.447Z,14.35
2019-05-10T19:27:51.288Z,14.32
2019-05-10T19:30:20.707Z,14.31
2019-05-10T19:32:51.284Z,14.27
2019-05-10T19:35:20.484Z,14.28
2019-05-10T19:37:50.516Z,14.28
2019-05-10T19:40:19.012Z,14.29
2019-05-10T19:42:49.400Z,14.31
2019-05-10T19:45:20.966Z,14.29
2019-05-10T19:47:49.799Z,14.28
2019-05-10T19:50:18.443Z,14.29
2019-05-10T19:52:46.943Z,14.25
2019-05-10T19:55:19.591Z,14.24
2019-05-10T19:57:49.606Z,14.23
2019-05-10T20:00:17.546Z,14.19
2019-05-10T20:02:46.227Z,14.19
2019-05-10T20:05:14.789Z,14.19
2019-05-10T20:07:46.418Z,14.19
2019-05-10T20:10:14.138Z,14.18
2019-05-10T20:12:42.528Z,14.15
2019-05-10T20:15:11.045Z,14.18
2019-05-10T20:17:39.449Z,14.17
2019-05-10T20:20:08.480Z,14.18
2019-05-10T20:22:36.925Z,14.14
2019-05-10T20:25:07.034Z,14.11
2019-05-10T20:27:35.410Z,14.07
2019-05-10T20:30:04.500Z,14.07
2019-05-10T20:32:32.971Z,14.06
2019-05-10T20:35:01.389Z,14.06
2019-05-10T20:37:30.210Z,14.04
2019-05-10T20:39:58.649Z,14.00
2019-05-10T20:42:27.042Z,14.00
2019-05-10T20:45:06.940Z,14.02
2019-05-10T20:47:25.680Z,13.97
2019-05-10T20:49:54.186Z,13.98
2019-05-10T20:52:22.678Z,13.95
2019-05-10T20:54:51.116Z,13.93
2019-05-10T20:57:19.586Z,13.92
2019-05-10T20:59:48.022Z,13.89
2019-05-10T21:02:16.478Z,13.87
2019-05-10T21:04:44.859Z,13.82
2019-05-10T21:07:13.381Z,13.83
2019-05-10T21:09:41.824Z,13.84
2019-05-10T21:12:10.380Z,13.79
2019-05-10T21:14:38.747Z,13.79
2019-05-10T21:17:07.264Z,13.76
2019-05-10T21:19:36.542Z,13.71
2019-05-10T21:22:04.997Z,13.69
2019-05-10T21:24:33.475Z,13.68
2019-05-10T21:27:02.205Z,13.65
2019-05-10T21:29:30.654Z,13.65
2019-05-10T21:31:59.141Z,13.62
2019-05-10T21:34:27.580Z,13.60
2019-05-10T21:36:56.054Z,13.56
2019-05-10T21:39:24.436Z,13.53
2019-05-10T21:41:53.101Z,13.57
2019-05-10T21:44:21.490Z,13.59
2019-05-10T21:46:53.389Z,13.50
2019-05-10T21:49:20.053Z,13.47
2019-05-10T21:51:48.584Z,13.47
2019-05-10T21:54:17.020Z,13.44
2019-05-10T21:56:45.414Z,13.45
2019-05-10T21:59:13.875Z,13.42
2019-05-10T22:01:42.415Z,13.41
2019-05-10T22:04:10.885Z,13.40
2019-05-10T22:06:39.683Z,13.40
2019-05-10T22:09:09.283Z,13.39
2019-05-10T22:11:37.806Z,13.37
2019-05-10T22:14:06.278Z,13.32
2019-05-10T22:16:34.911Z,13.28
2019-05-10T22:19:03.358Z,13.20
2019-05-10T22:21:32.210Z,13.23
2019-05-10T22:24:00.596Z,13.24
2019-05-10T22:26:29.106Z,13.18
2019-05-10T22:28:57.549Z,13.16
2019-05-10T22:31:26.030Z,13.08
2019-05-10T22:33:54.534Z,13.06
2019-05-10T22:36:22.928Z,13.03
2019-05-10T22:39:05.824Z,13.00
2019-05-10T22:41:21.699Z,12.95
2019-05-10T22:43:50.143Z,12.91
2019-05-10T22:46:18.615Z,12.89
2019-05-10T22:48:47.358Z,12.86
2019-05-10T22:51:15.755Z,12.85
2019-05-10T22:53:44.182Z,12.73
2019-05-10T22:56:12.583Z,12.71
2019-05-10T22:58:41.010Z,12.69
2019-05-10T23:01:09.402Z,12.71
2019-05-10T23:03:37.928Z,12.72
2019-05-10T23:06:06.376Z,12.70
2019-05-10T23:08:34.886Z,12.69
2019-05-10T23:11:03.364Z,12.68
2019-05-10T23:13:31.803Z,12.70
2019-05-10T23:16:00.266Z,12.65
2019-05-10T23:18:28.637Z,12.61
2019-05-10T23:20:57.414Z,12.59
2019-05-10T23:23:25.858Z,12.56
2019-05-10T23:25:54.396Z,12.58
2019-05-10T23:28:23.269Z,12.62
2019-05-10T23:30:51.668Z,12.59
2019-05-10T23:33:20.068Z,12.53
2019-05-10T23:35:48.514Z,12.44
2019-05-10T23:38:17.027Z,12.41
2019-05-10T23:40:45.717Z,12.34
2019-05-10T23:43:14.577Z,12.26
2019-05-10T23:45:43.030Z,12.33
2019-05-10T23:48:11.435Z,12.36
2019-05-10T23:50:40.223Z,12.40
2019-05-10T23:53:08.617Z,12.43
2019-05-10T23:55:37.078Z,12.44
2019-05-10T23:58:05.615Z,12.49
